sensor_id;sensor_type;location;lat;lon;timestamp;pressure;altitude;pressure_sealevel;temperature;humidity
51781;BME280;37844;57.126;24.288;2023-05-01T00:01:18;101719.38;;;6.08;100.00
51781;BME280;37844;57.126;24.288;2023-05-01T00:04:02;101721.94;;;6.08;100.00
51781;BME280;37844;57.126;24.288;2023-05-01T00:06:46;101718.47;;;6.07;100.00
51781;BME280;37844;57.126;24.288;2023-05-01T00:09:30;101719.19;;;6.05;100.00
51781;BME280;37844;57.126;24.288;2023-05-01T00:12:14;101716.59;;;6.03;100.00
51781;BME280;37844;57.126;24.288;2023-05-01T00:14:58;101723.41;;;6.03;100.00
51781;BME280;37844;57.126;24.288;2023-05-01T00:17:42;101720.03;;;6.04;100.00
51781;BME280;37844;57.126;24.288;2023-05-01T00:20:27;101717.31;;;6.01;100.00
51781;BME280;37844;57.126;24.288;2023-05-01T00:23:11;101718.94;;;5.99;100.00
51781;BME280;37844;57.126;24.288;2023-05-01T00:25:56;101710.44;;;6.00;100.00
51781;BME280;37844;57.126;24.288;2023-05-01T00:28:40;101715.50;;;5.98;100.00
51781;BME280;37844;57.126;24.288;2023-05-01T00:31:24;101719.72;;;5.98;100.00
51781;BME280;37844;57.126;24.288;2023-05-01T00:34:08;101716.50;;;6.02;100.00
51781;BME280;37844;57.126;24.288;2023-05-01T00:36:54;101721.50;;;5.99;100.00
51781;BME280;37844;57.126;24.288;2023-05-01T00:39:38;101713.47;;;5.92;100.00
51781;BME280;37844;57.126;24.288;2023-05-01T00:42:22;101721.09;;;5.91;100.00
51781;BME280;37844;57.126;24.288;2023-05-01T00:45:06;101720.44;;;5.95;100.00
51781;BME280;37844;57.126;24.288;2023-05-01T00:47:50;101721.50;;;5.99;100.00
51781;BME280;37844;57.126;24.288;2023-05-01T00:50:34;101719.88;;;6.01;100.00
51781;BME280;37844;57.126;24.288;2023-05-01T00:53:18;101718.75;;;5.95;100.00
51781;BME280;37844;57.126;24.288;2023-05-01T00:56:02;101723.84;;;5.94;100.00
51781;BME280;37844;57.126;24.288;2023-05-01T00:58:48;101720.44;;;5.95;100.00
51781;BME280;37844;57.126;24.288;2023-05-01T01:01:33;101725.75;;;5.98;100.00
51781;BME280;37844;57.126;24.288;2023-05-01T01:04:17;101724.84;;;5.98;100.00
51781;BME280;37844;57.126;24.288;2023-05-01T01:07:17;101723.72;;;5.92;100.00
51781;BME280;37844;57.126;24.288;2023-05-01T01:24:10;101719.94;;;6.02;100.00
51781;BME280;37844;57.126;24.288;2023-05-01T01:35:32;101723.34;;;5.85;100.00
51781;BME280;37844;57.126;24.288;2023-05-01T01:38:21;101720.72;;;5.83;100.00
51781;BME280;37844;57.126;24.288;2023-05-01T01:41:08;101717.41;;;5.86;100.00
51781;BME280;37844;57.126;24.288;2023-05-01T01:43:57;101716.91;;;5.23;100.00
51781;BME280;37844;57.126;24.288;2023-05-01T01:46:44;101722.38;;;4.96;100.00
51781;BME280;37844;57.126;24.288;2023-05-01T01:49:28;101722.84;;;4.40;100.00
51781;BME280;37844;57.126;24.288;2023-05-01T01:52:14;101727.25;;;4.11;100.00
51781;BME280;37844;57.126;24.288;2023-05-01T01:55:01;101725.66;;;3.98;100.00
51781;BME280;37844;57.126;24.288;2023-05-01T01:57:48;101725.00;;;3.86;100.00
51781;BME280;37844;57.126;24.288;2023-05-01T02:00:33;101731.38;;;3.63;100.00
51781;BME280;37844;57.126;24.288;2023-05-01T02:03:18;101721.00;;;3.45;100.00
51781;BME280;37844;57.126;24.288;2023-05-01T02:06:03;101725.81;;;3.40;100.00
51781;BME280;37844;57.126;24.288;2023-05-01T02:08:48;101728.97;;;3.36;100.00
51781;BME280;37844;57.126;24.288;2023-05-01T02:11:33;101723.53;;;3.45;100.00
51781;BME280;37844;57.126;24.288;2023-05-01T02:14:20;101732.31;;;3.35;100.00
51781;BME280;37844;57.126;24.288;2023-05-01T02:17:04;101729.34;;;3.57;100.00
51781;BME280;37844;57.126;24.288;2023-05-01T02:19:48;101737.59;;;3.38;100.00
51781;BME280;37844;57.126;24.288;2023-05-01T02:22:35;101732.50;;;3.24;100.00
51781;BME280;37844;57.126;24.288;2023-05-01T02:25:21;101727.13;;;3.19;100.00
51781;BME280;37844;57.126;24.288;2023-05-01T02:28:08;101739.91;;;3.06;100.00
51781;BME280;37844;57.126;24.288;2023-05-01T02:30:54;101726.88;;;3.44;100.00
51781;BME280;37844;57.126;24.288;2023-05-01T02:33:39;101728.09;;;3.51;100.00
51781;BME280;37844;57.126;24.288;2023-05-01T02:36:23;101732.88;;;3.45;100.00
51781;BME280;37844;57.126;24.288;2023-05-01T02:39:22;101739.88;;;3.34;100.00
51781;BME280;37844;57.126;24.288;2023-05-01T02:42:07;101732.44;;;3.37;100.00
51781;BME280;37844;57.126;24.288;2023-05-01T02:45:01;101729.25;;;3.41;100.00
51781;BME280;37844;57.126;24.288;2023-05-01T02:47:50;101737.69;;;3.25;100.00
51781;BME280;37844;57.126;24.288;2023-05-01T02:50:35;101736.88;;;3.11;100.00
51781;BME280;37844;57.126;24.288;2023-05-01T02:53:20;101735.78;;;3.08;100.00
51781;BME280;37844;57.126;24.288;2023-05-01T02:56:07;101737.66;;;3.10;100.00
51781;BME280;37844;57.126;24.288;2023-05-01T02:58:51;101728.69;;;3.17;100.00
51781;BME280;37844;57.126;24.288;2023-05-01T03:01:36;101728.34;;;3.11;100.00
51781;BME280;37844;57.126;24.288;2023-05-01T03:04:20;101729.50;;;3.16;100.00
51781;BME280;37844;57.126;24.288;2023-05-01T03:07:05;101725.97;;;3.14;100.00
51781;BME280;37844;57.126;24.288;2023-05-01T03:09:49;101731.69;;;3.25;100.00
51781;BME280;37844;57.126;24.288;2023-05-01T03:12:33;101724.50;;;3.32;100.00
51781;BME280;37844;57.126;24.288;2023-05-01T03:15:17;101724.94;;;3.40;100.00
51781;BME280;37844;57.126;24.288;2023-05-01T03:18:01;101726.84;;;3.29;100.00
51781;BME280;37844;57.126;24.288;2023-05-01T03:20:51;101735.22;;;3.27;100.00
51781;BME280;37844;57.126;24.288;2023-05-01T03:23:36;101724.06;;;3.39;100.00
51781;BME280;37844;57.126;24.288;2023-05-01T03:26:21;101724.41;;;3.31;100.00
51781;BME280;37844;57.126;24.288;2023-05-01T03:29:05;101729.50;;;3.46;100.00
51781;BME280;37844;57.126;24.288;2023-05-01T03:31:49;101719.31;;;3.31;100.00
51781;BME280;37844;57.126;24.288;2023-05-01T03:34:33;101728.63;;;3.30;100.00
51781;BME280;37844;57.126;24.288;2023-05-01T03:37:17;101731.34;;;3.48;100.00
51781;BME280;37844;57.126;24.288;2023-05-01T03:40:02;101726.94;;;3.60;100.00
51781;BME280;37844;57.126;24.288;2023-05-01T03:42:46;101724.78;;;3.52;100.00
51781;BME280;37844;57.126;24.288;2023-05-01T03:45:30;101725.81;;;3.70;100.00
51781;BME280;37844;57.126;24.288;2023-05-01T03:48:14;101733.47;;;3.55;100.00
51781;BME280;37844;57.126;24.288;2023-05-01T03:50:58;101725.72;;;3.69;100.00
51781;BME280;37844;57.126;24.288;2023-05-01T03:53:42;101732.13;;;3.77;100.00
51781;BME280;37844;57.126;24.288;2023-05-01T03:56:26;101732.84;;;3.74;100.00
51781;BME280;37844;57.126;24.288;2023-05-01T03:59:10;101730.19;;;3.88;100.00
51781;BME280;37844;57.126;24.288;2023-05-01T04:01:55;101733.56;;;4.03;100.00
51781;BME280;37844;57.126;24.288;2023-05-01T04:04:39;101733.69;;;4.04;100.00
51781;BME280;37844;57.126;24.288;2023-05-01T04:07:23;101739.94;;;3.95;100.00
51781;BME280;37844;57.126;24.288;2023-05-01T04:10:07;101736.53;;;3.94;100.00
51781;BME280;37844;57.126;24.288;2023-05-01T04:12:52;101743.84;;;4.19;100.00
51781;BME280;37844;57.126;24.288;2023-05-01T04:15:36;101731.63;;;4.45;100.00
51781;BME280;37844;57.126;24.288;2023-05-01T04:18:21;101738.59;;;4.64;100.00
51781;BME280;37844;57.126;24.288;2023-05-01T04:21:05;101740.50;;;4.68;100.00
51781;BME280;37844;57.126;24.288;2023-05-01T04:23:48;101737.38;;;4.74;100.00
51781;BME280;37844;57.126;24.288;2023-05-01T04:26:32;101746.59;;;4.86;100.00
51781;BME280;37844;57.126;24.288;2023-05-01T04:29:16;101741.06;;;4.95;100.00
51781;BME280;37844;57.126;24.288;2023-05-01T04:32:00;101739.84;;;5.05;100.00
51781;BME280;37844;57.126;24.288;2023-05-01T04:34:44;101739.44;;;5.30;100.00
51781;BME280;37844;57.126;24.288;2023-05-01T04:37:28;101739.63;;;5.51;100.00
51781;BME280;37844;57.126;24.288;2023-05-01T04:40:12;101738.13;;;5.72;100.00
51781;BME280;37844;57.126;24.288;2023-05-01T04:42:56;101746.03;;;5.95;100.00
51781;BME280;37844;57.126;24.288;2023-05-01T04:45:40;101747.22;;;6.20;100.00
51781;BME280;37844;57.126;24.288;2023-05-01T04:48:24;101750.81;;;6.43;100.00
51781;BME280;37844;57.126;24.288;2023-05-01T04:51:08;101741.63;;;6.66;100.00
51781;BME280;37844;57.126;24.288;2023-05-01T04:53:52;101749.41;;;6.87;100.00
51781;BME280;37844;57.126;24.288;2023-05-01T04:56:37;101741.16;;;7.13;100.00
51781;BME280;37844;57.126;24.288;2023-05-01T04:59:20;101744.72;;;7.36;100.00
51781;BME280;37844;57.126;24.288;2023-05-01T05:02:04;101751.53;;;7.57;100.00
51781;BME280;37844;57.126;24.288;2023-05-01T05:04:49;101742.00;;;7.75;100.00
51781;BME280;37844;57.126;24.288;2023-05-01T05:07:33;101755.91;;;8.01;100.00
51781;BME280;37844;57.126;24.288;2023-05-01T05:10:17;101752.72;;;8.29;100.00
51781;BME280;37844;57.126;24.288;2023-05-01T05:13:02;101750.28;;;8.55;99.67
51781;BME280;37844;57.126;24.288;2023-05-01T05:15:45;101761.72;;;8.86;98.13
51781;BME280;37844;57.126;24.288;2023-05-01T05:18:29;101705.03;;;9.07;94.64
51781;BME280;37844;57.126;24.288;2023-05-01T05:21:13;101751.94;;;9.51;89.66
51781;BME280;37844;57.126;24.288;2023-05-01T05:23:57;101745.53;;;9.91;87.00
51781;BME280;37844;57.126;24.288;2023-05-01T05:26:41;101747.00;;;10.37;81.33
51781;BME280;37844;57.126;24.288;2023-05-01T05:29:25;101749.81;;;10.75;77.27
51781;BME280;37844;57.126;24.288;2023-05-01T05:32:09;101747.16;;;11.03;74.53
51781;BME280;37844;57.126;24.288;2023-05-01T05:34:54;101750.81;;;11.45;71.90
51781;BME280;37844;57.126;24.288;2023-05-01T05:37:39;101746.97;;;11.97;70.37
51781;BME280;37844;57.126;24.288;2023-05-01T05:40:23;101757.28;;;12.35;67.39
51781;BME280;37844;57.126;24.288;2023-05-01T05:43:07;101762.06;;;12.99;66.08
51781;BME280;37844;57.126;24.288;2023-05-01T05:45:55;101759.41;;;13.41;63.57
51781;BME280;37844;57.126;24.288;2023-05-01T05:48:39;101751.28;;;13.70;59.46
51781;BME280;37844;57.126;24.288;2023-05-01T05:51:23;101761.25;;;14.00;57.40
51781;BME280;37844;57.126;24.288;2023-05-01T05:54:06;101758.44;;;14.46;56.34
51781;BME280;37844;57.126;24.288;2023-05-01T05:56:51;101746.53;;;14.61;55.26
51781;BME280;37844;57.126;24.288;2023-05-01T05:59:35;101758.63;;;15.39;52.75
51781;BME280;37844;57.126;24.288;2023-05-01T06:02:19;101758.78;;;15.54;51.28
51781;BME280;37844;57.126;24.288;2023-05-01T06:05:04;101762.22;;;15.50;50.14
51781;BME280;37844;57.126;24.288;2023-05-01T06:07:48;101759.13;;;15.96;48.77
51781;BME280;37844;57.126;24.288;2023-05-01T06:10:32;101764.69;;;16.56;48.45
51781;BME280;37844;57.126;24.288;2023-05-01T06:13:16;101758.00;;;17.31;47.55
51781;BME280;37844;57.126;24.288;2023-05-01T06:16:00;101752.81;;;17.59;46.23
51781;BME280;37844;57.126;24.288;2023-05-01T06:18:44;101760.63;;;17.47;44.85
51781;BME280;37844;57.126;24.288;2023-05-01T06:21:29;101758.78;;;18.47;44.01
51781;BME280;37844;57.126;24.288;2023-05-01T06:24:15;101757.38;;;19.46;41.83
51781;BME280;37844;57.126;24.288;2023-05-01T06:26:59;101759.06;;;19.52;40.31
51781;BME280;37844;57.126;24.288;2023-05-01T06:29:44;101760.09;;;20.31;39.56
51781;BME280;37844;57.126;24.288;2023-05-01T06:32:27;101760.34;;;20.08;38.62
51781;BME280;37844;57.126;24.288;2023-05-01T06:35:11;101750.47;;;21.05;39.25
51781;BME280;37844;57.126;24.288;2023-05-01T06:37:55;101763.16;;;20.70;37.93
51781;BME280;37844;57.126;24.288;2023-05-01T06:40:39;101763.94;;;20.75;36.99
51781;BME280;37844;57.126;24.288;2023-05-01T06:43:24;101761.44;;;21.31;36.97
51781;BME280;37844;57.126;24.288;2023-05-01T06:46:13;101762.84;;;20.92;36.49
51781;BME280;37844;57.126;24.288;2023-05-01T06:48:57;101758.81;;;21.31;36.64
51781;BME280;37844;57.126;24.288;2023-05-01T06:51:41;101763.78;;;21.99;34.80
51781;BME280;37844;57.126;24.288;2023-05-01T06:54:25;101756.94;;;22.39;35.10
51781;BME280;37844;57.126;24.288;2023-05-01T06:57:12;101755.31;;;22.75;33.77
51781;BME280;37844;57.126;24.288;2023-05-01T06:59:56;101754.75;;;23.01;32.74
51781;BME280;37844;57.126;24.288;2023-05-01T07:02:40;101758.66;;;23.58;31.50
51781;BME280;37844;57.126;24.288;2023-05-01T07:05:24;101762.13;;;22.85;31.98
51781;BME280;37844;57.126;24.288;2023-05-01T07:08:08;101755.38;;;23.50;31.47
51781;BME280;37844;57.126;24.288;2023-05-01T07:10:52;101764.59;;;24.02;30.80
51781;BME280;37844;57.126;24.288;2023-05-01T07:13:37;101751.78;;;24.82;29.48
51781;BME280;37844;57.126;24.288;2023-05-01T07:16:21;101748.06;;;24.28;30.37
51781;BME280;37844;57.126;24.288;2023-05-01T07:19:05;101748.94;;;24.88;28.79
51781;BME280;37844;57.126;24.288;2023-05-01T07:21:49;101745.94;;;25.29;29.48
51781;BME280;37844;57.126;24.288;2023-05-01T07:24:33;101748.09;;;25.69;29.04
51781;BME280;37844;57.126;24.288;2023-05-01T07:27:16;101744.81;;;25.63;27.36
51781;BME280;37844;57.126;24.288;2023-05-01T07:30:01;101735.47;;;26.04;28.04
51781;BME280;37844;57.126;24.288;2023-05-01T07:32:47;101735.50;;;26.51;27.50
51781;BME280;37844;57.126;24.288;2023-05-01T07:35:32;101732.91;;;26.50;26.79
51781;BME280;37844;57.126;24.288;2023-05-01T07:38:16;101732.19;;;26.92;26.39
51781;BME280;37844;57.126;24.288;2023-05-01T07:41:00;101730.25;;;26.02;27.25
51781;BME280;37844;57.126;24.288;2023-05-01T07:43:44;101726.47;;;25.85;27.33
51781;BME280;37844;57.126;24.288;2023-05-01T07:46:28;101720.91;;;26.17;26.81
51781;BME280;37844;57.126;24.288;2023-05-01T07:49:12;101715.59;;;25.42;27.90
51781;BME280;37844;57.126;24.288;2023-05-01T07:51:56;101727.44;;;26.31;27.63
51781;BME280;37844;57.126;24.288;2023-05-01T07:54:40;101710.47;;;27.05;26.90
51781;BME280;37844;57.126;24.288;2023-05-01T07:57:24;101717.66;;;26.80;27.52
51781;BME280;37844;57.126;24.288;2023-05-01T08:00:09;101721.06;;;26.60;26.81
51781;BME280;37844;57.126;24.288;2023-05-01T08:02:53;101718.63;;;26.32;26.05
51781;BME280;37844;57.126;24.288;2023-05-01T08:05:40;101721.31;;;26.30;26.30
51781;BME280;37844;57.126;24.288;2023-05-01T08:08:24;101729.69;;;25.41;27.45
51781;BME280;37844;57.126;24.288;2023-05-01T08:11:08;101720.19;;;25.37;28.00
51781;BME280;37844;57.126;24.288;2023-05-01T08:13:52;101720.31;;;24.76;27.26
51781;BME280;37844;57.126;24.288;2023-05-01T08:16:36;101718.16;;;24.89;27.39
51781;BME280;37844;57.126;24.288;2023-05-01T08:19:20;101723.00;;;24.45;27.91
51781;BME280;37844;57.126;24.288;2023-05-01T08:22:04;101724.75;;;23.82;27.82
51781;BME280;37844;57.126;24.288;2023-05-01T08:24:49;101712.41;;;23.49;28.04
51781;BME280;37844;57.126;24.288;2023-05-01T08:27:33;101722.13;;;23.10;28.18
51781;BME280;37844;57.126;24.288;2023-05-01T08:30:17;101712.16;;;22.85;28.06
51781;BME280;37844;57.126;24.288;2023-05-01T08:33:01;101718.22;;;22.03;28.22
51781;BME280;37844;57.126;24.288;2023-05-01T08:35:47;101711.41;;;22.80;27.97
51781;BME280;37844;57.126;24.288;2023-05-01T08:38:31;101715.72;;;23.56;27.99
51781;BME280;37844;57.126;24.288;2023-05-01T08:41:15;101698.97;;;22.47;28.11
51781;BME280;37844;57.126;24.288;2023-05-01T08:44:03;101706.53;;;22.18;29.06
51781;BME280;37844;57.126;24.288;2023-05-01T08:49:34;101710.44;;;21.49;28.27
51781;BME280;37844;57.126;24.288;2023-05-01T08:52:19;101709.00;;;22.28;27.82
51781;BME280;37844;57.126;24.288;2023-05-01T08:55:03;101697.47;;;21.90;27.88
51781;BME280;37844;57.126;24.288;2023-05-01T08:57:48;101702.72;;;22.36;28.79
51781;BME280;37844;57.126;24.288;2023-05-01T09:00:33;101700.84;;;22.41;27.57
51781;BME280;37844;57.126;24.288;2023-05-01T09:03:18;101704.97;;;21.62;27.64
51781;BME280;37844;57.126;24.288;2023-05-01T09:06:03;101699.75;;;22.92;28.71
51781;BME280;37844;57.126;24.288;2023-05-01T09:08:47;101683.31;;;22.42;28.27
51781;BME280;37844;57.126;24.288;2023-05-01T09:11:31;101701.38;;;21.14;30.05
51781;BME280;37844;57.126;24.288;2023-05-01T09:14:15;101686.44;;;21.71;29.39
51781;BME280;37844;57.126;24.288;2023-05-01T09:16:59;101691.25;;;21.95;29.32
51781;BME280;37844;57.126;24.288;2023-05-01T09:19:43;101683.03;;;21.14;29.99
51781;BME280;37844;57.126;24.288;2023-05-01T09:22:28;101693.19;;;20.06;30.63
51781;BME280;37844;57.126;24.288;2023-05-01T09:25:12;101694.63;;;19.45;31.27
51781;BME280;37844;57.126;24.288;2023-05-01T09:27:56;101686.34;;;18.88;32.11
51781;BME280;37844;57.126;24.288;2023-05-01T09:30:40;101686.44;;;18.66;32.81
51781;BME280;37844;57.126;24.288;2023-05-01T09:33:24;101690.09;;;18.33;34.01
51781;BME280;37844;57.126;24.288;2023-05-01T09:36:08;101683.59;;;19.09;34.21
51781;BME280;37844;57.126;24.288;2023-05-01T09:39:00;101674.78;;;19.22;34.46
51781;BME280;37844;57.126;24.288;2023-05-01T09:41:50;101677.28;;;19.33;33.91
51781;BME280;37844;57.126;24.288;2023-05-01T09:44:41;101677.69;;;18.73;35.28
51781;BME280;37844;57.126;24.288;2023-05-01T09:47:26;101676.16;;;18.29;34.62
51781;BME280;37844;57.126;24.288;2023-05-01T09:50:12;101679.81;;;17.80;35.13
51781;BME280;37844;57.126;24.288;2023-05-01T09:53:11;101671.97;;;17.67;35.99
51781;BME280;37844;57.126;24.288;2023-05-01T09:55:59;101671.09;;;17.55;36.18
51781;BME280;37844;57.126;24.288;2023-05-01T09:58:44;101667.66;;;17.38;36.02
51781;BME280;37844;57.126;24.288;2023-05-01T10:04:31;101667.63;;;17.32;36.14
51781;BME280;37844;57.126;24.288;2023-05-01T10:07:15;101664.97;;;17.98;36.68
51781;BME280;37844;57.126;24.288;2023-05-01T10:10:18;101665.81;;;18.05;35.84
51781;BME280;37844;57.126;24.288;2023-05-01T10:13:15;101659.81;;;17.81;34.91
51781;BME280;37844;57.126;24.288;2023-05-01T10:15:59;101642.38;;;17.77;34.86
51781;BME280;37844;57.126;24.288;2023-05-01T10:18:46;101642.41;;;17.85;35.35
51781;BME280;37844;57.126;24.288;2023-05-01T10:21:31;101651.97;;;17.75;36.20
51781;BME280;37844;57.126;24.288;2023-05-01T10:24:18;101638.03;;;17.79;36.43
51781;BME280;37844;57.126;24.288;2023-05-01T10:27:03;101638.00;;;18.00;36.52
51781;BME280;37844;57.126;24.288;2023-05-01T10:29:50;101627.59;;;17.79;36.46
51781;BME280;37844;57.126;24.288;2023-05-01T10:32:35;101647.59;;;17.72;36.78
51781;BME280;37844;57.126;24.288;2023-05-01T10:35:20;101639.84;;;17.48;37.16
51781;BME280;37844;57.126;24.288;2023-05-01T10:38:07;101636.41;;;17.18;37.43
51781;BME280;37844;57.126;24.288;2023-05-01T10:40:52;101641.59;;;16.98;37.29
51781;BME280;37844;57.126;24.288;2023-05-01T10:43:45;101639.84;;;17.00;38.59
51781;BME280;37844;57.126;24.288;2023-05-01T10:46:29;101629.44;;;17.03;38.58
51781;BME280;37844;57.126;24.288;2023-05-01T10:49:13;101629.44;;;17.05;39.59
51781;BME280;37844;57.126;24.288;2023-05-01T10:51:58;101621.63;;;16.92;37.76
51781;BME280;37844;57.126;24.288;2023-05-01T10:54:42;101620.75;;;16.86;38.77
51781;BME280;37844;57.126;24.288;2023-05-01T10:57:42;101625.03;;;16.76;39.81
51781;BME280;37844;57.126;24.288;2023-05-01T11:00:27;101626.69;;;16.42;39.37
51781;BME280;37844;57.126;24.288;2023-05-01T11:06:04;101646.28;;;15.71;40.19
51781;BME280;37844;57.126;24.288;2023-05-01T11:08:48;101644.16;;;15.17;40.67
51781;BME280;37844;57.126;24.288;2023-05-01T11:14:16;101634.78;;;15.33;41.02
51781;BME280;37844;57.126;24.288;2023-05-01T11:17:00;101630.09;;;14.91;41.31
51781;BME280;37844;57.126;24.288;2023-05-01T11:19:49;101633.59;;;14.96;41.98
51781;BME280;37844;57.126;24.288;2023-05-01T11:22:35;101628.97;;;14.66;41.86
51781;BME280;37844;57.126;24.288;2023-05-01T11:25:28;101624.50;;;14.54;42.57
51781;BME280;37844;57.126;24.288;2023-05-01T11:28:17;101639.69;;;14.21;43.00
51781;BME280;37844;57.126;24.288;2023-05-01T11:31:03;101627.81;;;14.40;43.80
51781;BME280;37844;57.126;24.288;2023-05-01T11:33:47;101634.44;;;14.17;43.28
51781;BME280;37844;57.126;24.288;2023-05-01T11:36:52;101631.09;;;14.27;44.29
51781;BME280;37844;57.126;24.288;2023-05-01T11:39:35;101623.44;;;14.39;44.36
51781;BME280;37844;57.126;24.288;2023-05-01T11:42:19;101627.84;;;14.47;44.87
51781;BME280;37844;57.126;24.288;2023-05-01T11:45:08;101628.78;;;14.52;44.81
51781;BME280;37844;57.126;24.288;2023-05-01T11:47:55;101623.72;;;14.59;45.70
51781;BME280;37844;57.126;24.288;2023-05-01T11:50:39;101624.69;;;14.72;46.04
51781;BME280;37844;57.126;24.288;2023-05-01T11:53:29;101621.06;;;14.56;46.50
51781;BME280;37844;57.126;24.288;2023-05-01T11:56:18;101621.00;;;14.53;46.53
51781;BME280;37844;57.126;24.288;2023-05-01T11:59:10;101631.28;;;14.44;47.83
51781;BME280;37844;57.126;24.288;2023-05-01T12:01:54;101618.28;;;14.42;47.58
51781;BME280;37844;57.126;24.288;2023-05-01T12:04:39;101625.06;;;14.30;48.01
51781;BME280;37844;57.126;24.288;2023-05-01T12:07:23;101624.06;;;14.17;48.72
51781;BME280;37844;57.126;24.288;2023-05-01T12:10:07;101620.59;;;14.18;48.89
51781;BME280;37844;57.126;24.288;2023-05-01T12:12:51;101620.59;;;14.16;48.39
51781;BME280;37844;57.126;24.288;2023-05-01T12:15:38;101618.81;;;14.14;50.00
51781;BME280;37844;57.126;24.288;2023-05-01T12:18:23;101616.28;;;14.17;50.29
51781;BME280;37844;57.126;24.288;2023-05-01T12:21:13;101620.59;;;14.16;50.47
51781;BME280;37844;57.126;24.288;2023-05-01T12:26:58;101616.94;;;14.00;52.35
51781;BME280;37844;57.126;24.288;2023-05-01T12:29:43;101613.25;;;13.83;53.21
51781;BME280;37844;57.126;24.288;2023-05-01T12:32:30;101625.94;;;13.10;54.45
51781;BME280;37844;57.126;24.288;2023-05-01T12:35:15;101620.69;;;13.07;55.67
51781;BME280;37844;57.126;24.288;2023-05-01T12:38:00;101617.66;;;12.81;56.91
51781;BME280;37844;57.126;24.288;2023-05-01T12:40:52;101615.22;;;12.88;55.86
51781;BME280;37844;57.126;24.288;2023-05-01T12:43:37;101605.66;;;12.84;55.79
51781;BME280;37844;57.126;24.288;2023-05-01T12:46:21;101614.16;;;12.79;56.17
51781;BME280;37844;57.126;24.288;2023-05-01T12:49:05;101609.97;;;12.85;56.19
51781;BME280;37844;57.126;24.288;2023-05-01T12:51:49;101618.31;;;12.69;56.79
51781;BME280;37844;57.126;24.288;2023-05-01T12:54:34;101622.66;;;12.71;58.54
51781;BME280;37844;57.126;24.288;2023-05-01T12:57:22;101625.16;;;12.67;58.29
51781;BME280;37844;57.126;24.288;2023-05-01T13:00:06;101622.22;;;12.47;60.17
51781;BME280;37844;57.126;24.288;2023-05-01T13:02:52;101617.81;;;12.41;60.98
51781;BME280;37844;57.126;24.288;2023-05-01T13:05:36;101622.97;;;12.41;63.49
51781;BME280;37844;57.126;24.288;2023-05-01T13:08:35;101621.22;;;12.39;64.27
51781;BME280;37844;57.126;24.288;2023-05-01T13:11:19;101619.41;;;12.35;64.59
51781;BME280;37844;57.126;24.288;2023-05-01T13:14:05;101627.53;;;12.11;66.21
51781;BME280;37844;57.126;24.288;2023-05-01T13:16:50;101623.44;;;12.22;67.38
51781;BME280;37844;57.126;24.288;2023-05-01T13:19:40;101614.19;;;12.33;66.76
51781;BME280;37844;57.126;24.288;2023-05-01T13:22:31;101614.31;;;12.39;64.89
51781;BME280;37844;57.126;24.288;2023-05-01T13:25:16;101624.16;;;12.15;64.81
51781;BME280;37844;57.126;24.288;2023-05-01T13:28:03;101618.97;;;12.13;64.87
51781;BME280;37844;57.126;24.288;2023-05-01T13:30:46;101610.25;;;12.08;66.07
51781;BME280;37844;57.126;24.288;2023-05-01T13:33:30;101616.09;;;11.99;66.66
51781;BME280;37844;57.126;24.288;2023-05-01T13:36:15;101602.25;;;11.97;64.53
51781;BME280;37844;57.126;24.288;2023-05-01T13:38:59;101608.81;;;11.83;64.37
51781;BME280;37844;57.126;24.288;2023-05-01T13:41:43;101599.91;;;12.08;63.80
51781;BME280;37844;57.126;24.288;2023-05-01T13:44:27;101593.84;;;12.07;64.95
51781;BME280;37844;57.126;24.288;2023-05-01T13:47:13;101593.19;;;12.16;64.32
51781;BME280;37844;57.126;24.288;2023-05-01T13:49:58;101590.63;;;12.18;64.05
51781;BME280;37844;57.126;24.288;2023-05-01T13:52:43;101589.97;;;12.28;63.14
51781;BME280;37844;57.126;24.288;2023-05-01T13:55:27;101592.69;;;12.36;64.40
51781;BME280;37844;57.126;24.288;2023-05-01T13:58:12;101604.28;;;12.56;63.93
51781;BME280;37844;57.126;24.288;2023-05-01T14:00:55;101610.06;;;12.43;60.96
51781;BME280;37844;57.126;24.288;2023-05-01T14:03:40;101601.31;;;12.35;61.13
51781;BME280;37844;57.126;24.288;2023-05-01T14:06:25;101598.66;;;12.32;61.25
51781;BME280;37844;57.126;24.288;2023-05-01T14:09:09;101600.31;;;12.28;61.95
51781;BME280;37844;57.126;24.288;2023-05-01T14:11:53;101594.31;;;12.30;61.56
51781;BME280;37844;57.126;24.288;2023-05-01T14:14:46;101585.00;;;12.39;62.56
51781;BME280;37844;57.126;24.288;2023-05-01T14:17:31;101581.44;;;12.34;63.42
51781;BME280;37844;57.126;24.288;2023-05-01T14:20:16;101583.16;;;12.32;62.34
51781;BME280;37844;57.126;24.288;2023-05-01T14:23:00;101587.59;;;12.39;63.12
51781;BME280;37844;57.126;24.288;2023-05-01T14:25:44;101588.47;;;12.41;63.36
51781;BME280;37844;57.126;24.288;2023-05-01T14:28:29;101584.38;;;12.50;63.84
51781;BME280;37844;57.126;24.288;2023-05-01T14:31:22;101585.13;;;12.45;63.44
51781;BME280;37844;57.126;24.288;2023-05-01T14:34:07;101580.06;;;12.52;62.46
51781;BME280;37844;57.126;24.288;2023-05-01T14:36:53;101586.78;;;12.41;61.24
51781;BME280;37844;57.126;24.288;2023-05-01T14:39:37;101590.19;;;12.39;62.64
51781;BME280;37844;57.126;24.288;2023-05-01T14:42:21;101584.84;;;12.31;62.23
51781;BME280;37844;57.126;24.288;2023-05-01T14:45:05;101579.84;;;12.39;61.52
51781;BME280;37844;57.126;24.288;2023-05-01T14:47:52;101583.22;;;12.36;61.05
51781;BME280;37844;57.126;24.288;2023-05-01T14:50:36;101584.78;;;12.28;61.43